createdAt,value
2022-11-27T00:01:29.847Z,8.70
2022-11-27T00:03:57.515Z,7.73
2022-11-27T00:06:29.195Z,8.10
2022-11-27T00:08:57.093Z,6.63
2022-11-27T00:11:27.788Z,7.33
2022-11-27T00:13:55.432Z,6.90
2022-11-27T00:16:24.390Z,7.20
2022-11-27T00:18:51.611Z,6.60
2022-11-27T00:21:22.703Z,7.00
2022-11-27T00:23:52.919Z,6.70
2022-11-27T00:26:20.668Z,7.20
2022-11-27T00:28:48.513Z,6.97
2022-11-27T00:31:18.496Z,6.30
2022-11-27T00:33:46.235Z,5.87
2022-11-27T00:36:14.768Z,5.90
2022-11-27T00:38:42.570Z,6.50
2022-11-27T00:41:17.207Z,7.67
2022-11-27T00:43:45.535Z,6.73
2022-11-27T00:46:13.710Z,6.90
2022-11-27T00:48:41.437Z,7.43
2022-11-27T00:51:11.655Z,6.07
2022-11-27T00:53:38.704Z,6.73
2022-11-27T00:56:06.643Z,7.27
2022-11-27T00:58:35.219Z,6.33
2022-11-27T01:01:05.543Z,6.73
2022-11-27T01:03:34.281Z,5.67
2022-11-27T01:06:04.187Z,6.43
2022-11-27T01:08:31.549Z,6.30
2022-11-27T01:10:59.733Z,6.20
2022-11-27T01:13:29.404Z,6.20
2022-11-27T01:16:02.848Z,6.00
2022-11-27T01:18:30.387Z,5.93
2022-11-27T01:20:57.831Z,6.10
2022-11-27T01:23:25.335Z,5.90
2022-11-27T01:25:53.728Z,5.80
2022-11-27T01:28:22.331Z,6.60
2022-11-27T01:30:50.535Z,6.10
2022-11-27T01:33:19.463Z,6.00
2022-11-27T01:35:56.213Z,5.63
2022-11-27T01:38:24.640Z,6.97
2022-11-27T01:40:57.942Z,5.93
2022-11-27T01:43:40.164Z,7.00
2022-11-27T01:46:25.398Z,6.20
2022-11-27T01:48:59.696Z,6.43
2022-11-27T01:51:27.043Z,6.07
2022-11-27T01:53:54.936Z,6.83
2022-11-27T01:56:24.754Z,6.43
2022-11-27T01:58:52.616Z,6.57
2022-11-27T02:01:19.683Z,6.90
2022-11-27T02:03:46.755Z,7.63
2022-11-27T02:06:15.145Z,6.30
2022-11-27T02:08:43.048Z,6.40
2022-11-27T02:11:17.423Z,7.03
2022-11-27T02:13:51.046Z,7.57
2022-11-27T02:16:29.808Z,7.67
2022-11-27T02:19:07.367Z,6.93
2022-11-27T02:21:44.417Z,6.93
2022-11-27T02:24:46.986Z,7.90
2022-11-27T02:27:47.315Z,8.53
2022-11-27T02:30:16.037Z,7.60
2022-11-27T02:32:56.091Z,7.50
2022-11-27T02:35:31.729Z,8.93
2022-11-27T02:38:06.396Z,8.03
2022-11-27T02:40:41.333Z,8.77
2022-11-27T02:43:12.912Z,9.10
2022-11-27T02:45:45.126Z,8.07
2022-11-27T02:48:16.031Z,9.20
2022-11-27T02:50:46.724Z,8.37
2022-11-27T02:53:20.810Z,10.20
2022-11-27T02:55:52.011Z,9.67
2022-11-27T02:58:25.011Z,8.63
2022-11-27T03:00:54.795Z,10.17
2022-11-27T03:03:26.507Z,9.27
2022-11-27T03:06:02.504Z,9.03
2022-11-27T03:08:41.651Z,10.03
2022-11-27T03:11:11.341Z,9.17
2022-11-27T03:13:42.684Z,9.77
2022-11-27T03:16:20.712Z,9.97
2022-11-27T03:18:58.693Z,10.73
2022-11-27T03:21:34.313Z,11.07
2022-11-27T03:24:01.606Z,11.30
2022-11-27T03:26:29.044Z,11.60
2022-11-27T03:28:59.995Z,11.27
2022-11-27T03:31:28.915Z,11.10
2022-11-27T03:33:56.541Z,11.47
2022-11-27T03:36:24.786Z,12.53
2022-11-27T03:38:55.585Z,11.97
2022-11-27T03:41:38.748Z,12.03
2022-11-27T03:44:22.119Z,11.23
2022-11-27T03:47:10.514Z,11.30
2022-11-27T03:49:56.956Z,11.37
2022-11-27T03:52:44.891Z,10.07
2022-11-27T03:55:23.973Z,11.47
2022-11-27T03:58:00.306Z,11.57
2022-11-27T04:00:32.905Z,11.60
2022-11-27T04:03:03.283Z,11.67
2022-11-27T04:05:30.700Z,13.03
2022-11-27T04:07:57.950Z,12.23
2022-11-27T04:10:24.982Z,10.57
2022-11-27T04:12:51.980Z,11.43
2022-11-27T04:15:18.946Z,11.30
2022-11-27T04:17:46.153Z,11.13
2022-11-27T04:20:15.443Z,11.87
2022-11-27T04:22:42.413Z,11.70
2022-11-27T04:25:09.919Z,11.93
2022-11-27T04:27:36.855Z,11.40
2022-11-27T04:30:05.236Z,11.30
2022-11-27T04:32:32.208Z,12.10
2022-11-27T04:34:59.139Z,11.30
2022-11-27T04:37:27.420Z,11.03
2022-11-27T04:39:54.354Z,12.20
2022-11-27T04:42:21.373Z,11.53
2022-11-27T04:44:48.293Z,12.03
2022-11-27T04:47:16.377Z,12.53
2022-11-27T04:49:43.350Z,11.60
2022-11-27T04:52:13.725Z,11.63
2022-11-27T04:54:42.237Z,11.97
2022-11-27T04:57:09.490Z,12.57
2022-11-27T04:59:36.524Z,12.40
2022-11-27T05:02:03.629Z,12.47
2022-11-27T05:04:30.897Z,12.00
2022-11-27T05:06:57.911Z,11.83
2022-11-27T05:09:25.072Z,12.30
2022-11-27T05:11:53.314Z,12.00
2022-11-27T05:14:22.423Z,11.33
2022-11-27T05:16:52.547Z,12.23
2022-11-27T05:19:21.945Z,11.17
2022-11-27T05:21:50.083Z,10.63
2022-11-27T05:24:19.825Z,11.23
2022-11-27T05:26:47.627Z,11.30
2022-11-27T05:29:16.452Z,11.30
2022-11-27T05:31:43.692Z,11.40
2022-11-27T05:34:11.379Z,10.07
2022-11-27T05:36:39.570Z,11.53
2022-11-27T05:39:08.561Z,10.80
2022-11-27T05:41:37.532Z,9.43
2022-11-27T05:44:05.652Z,10.97
2022-11-27T05:46:34.245Z,10.60
2022-11-27T05:49:01.360Z,9.23
2022-11-27T05:51:28.450Z,11.40
2022-11-27T05:53:55.452Z,10.10
2022-11-27T05:56:22.429Z,10.73
2022-11-27T05:58:51.150Z,10.37
2022-11-27T06:01:19.275Z,10.20
2022-11-27T06:03:49.923Z,10.70
2022-11-27T06:06:19.780Z,9.47
2022-11-27T06:08:47.985Z,10.53
2022-11-27T06:11:17.621Z,11.03
2022-11-27T06:13:45.961Z,10.20
2022-11-27T06:16:15.796Z,10.20
2022-11-27T06:18:43.210Z,10.27
2022-11-27T06:21:14.480Z,10.60
2022-11-27T06:23:43.105Z,11.83
2022-11-27T06:26:16.720Z,11.30
2022-11-27T06:28:43.885Z,11.03
2022-11-27T06:31:17.705Z,11.07
2022-11-27T06:33:46.064Z,10.53
2022-11-27T06:36:14.451Z,10.93
2022-11-27T06:38:41.832Z,11.20
2022-11-27T06:41:11.761Z,10.73
2022-11-27T06:43:39.226Z,10.10
2022-11-27T06:46:11.272Z,9.90
2022-11-27T06:48:38.301Z,10.50
2022-11-27T06:51:08.023Z,10.03
2022-11-27T06:53:38.529Z,9.93
2022-11-27T06:56:08.997Z,11.20
2022-11-27T06:58:36.907Z,10.50
2022-11-27T07:01:08.627Z,9.27
2022-11-27T07:03:35.784Z,9.83
2022-11-27T07:06:05.464Z,10.63
2022-11-27T07:08:33.435Z,10.67
2022-11-27T07:11:04.791Z,11.03
2022-11-27T07:13:32.645Z,11.83
2022-11-27T07:16:01.639Z,10.73
2022-11-27T07:18:29.323Z,10.43
2022-11-27T07:20:57.075Z,10.87
2022-11-27T07:23:24.307Z,11.07
2022-11-27T07:25:51.367Z,10.70
2022-11-27T07:28:19.755Z,9.93
2022-11-27T07:30:54.713Z,9.50
2022-11-27T07:33:21.915Z,10.67
2022-11-27T07:35:49.085Z,10.27
2022-11-27T07:38:16.334Z,9.70
2022-11-27T07:40:43.246Z,11.67
2022-11-27T07:43:10.188Z,9.10
2022-11-27T07:45:38.661Z,10.33
2022-11-27T07:48:06.158Z,9.67
2022-11-27T07:50:33.205Z,10.60
2022-11-27T07:53:00.132Z,10.07
2022-11-27T07:55:27.112Z,10.13
2022-11-27T07:57:54.143Z,9.50
2022-11-27T08:00:21.956Z,10.60
2022-11-27T08:02:50.299Z,10.30
2022-11-27T08:05:17.470Z,9.30
2022-11-27T08:07:44.428Z,9.80
2022-11-27T08:10:11.562Z,9.77
2022-11-27T08:12:38.591Z,10.40
2022-11-27T08:15:07.280Z,10.60
2022-11-27T08:17:34.462Z,11.27
2022-11-27T08:20:04.071Z,11.23
2022-11-27T08:22:31.108Z,9.70
2022-11-27T08:24:58.230Z,11.47
2022-11-27T08:27:25.177Z,11.10
2022-11-27T08:29:52.120Z,11.03
2022-11-27T08:32:19.081Z,10.07
2022-11-27T08:34:46.007Z,12.27
2022-11-27T08:37:14.356Z,11.50
2022-11-27T08:39:41.337Z,10.07
2022-11-27T08:42:08.584Z,10.63
2022-11-27T08:44:35.572Z,11.60
2022-11-27T08:47:02.576Z,10.57
2022-11-27T08:49:29.521Z,10.40
2022-11-27T08:51:56.487Z,10.40
2022-11-27T08:54:24.967Z,10.40
2022-11-27T08:56:52.692Z,11.33
2022-11-27T08:59:20.248Z,10.57
2022-11-27T09:01:47.216Z,10.00
2022-11-27T09:04:14.199Z,10.13
2022-11-27T09:06:41.866Z,10.17
2022-11-27T09:09:08.896Z,11.33
2022-11-27T09:11:38.070Z,9.60
2022-11-27T09:14:06.010Z,9.97
2022-11-27T09:16:33.499Z,10.20
2022-11-27T09:19:00.606Z,10.33
2022-11-27T09:21:30.576Z,10.43
2022-11-27T09:23:59.694Z,10.47
2022-11-27T09:26:28.653Z,10.67
2022-11-27T09:28:59.203Z,10.67
2022-11-27T09:31:26.537Z,8.60
2022-11-27T09:33:54.657Z,10.20
2022-11-27T09:36:25.308Z,10.10
2022-11-27T09:38:53.240Z,9.83
2022-11-27T09:41:44.235Z,10.13
2022-11-27T09:44:25.606Z,9.23
2022-11-27T09:46:56.335Z,9.67
2022-11-27T09:49:29.011Z,9.57
2022-11-27T09:52:03.920Z,9.90
2022-11-27T09:54:38.733Z,9.97
2022-11-27T09:57:07.360Z,9.70
2022-11-27T09:59:45.789Z,10.50
2022-11-27T10:02:19.527Z,10.37
2022-11-27T10:05:12.466Z,9.83
2022-11-27T10:07:47.096Z,10.87
2022-11-27T10:10:36.232Z,10.40
2022-11-27T10:13:18.373Z,9.80
2022-11-27T10:15:55.666Z,10.87
2022-11-27T10:18:35.543Z,9.63
2022-11-27T10:21:13.036Z,10.33
2022-11-27T10:23:53.959Z,9.70
2022-11-27T10:26:29.090Z,10.37
2022-11-27T10:29:04.806Z,9.03
2022-11-27T10:31:40.790Z,10.00
2022-11-27T10:34:25.970Z,9.33
2022-11-27T10:36:56.525Z,9.43
2022-11-27T10:39:32.189Z,9.00
2022-11-27T10:42:10.205Z,9.40
2022-11-27T10:44:45.894Z,9.73
2022-11-27T10:47:15.715Z,9.47
2022-11-27T10:49:44.280Z,8.83
2022-11-27T10:52:15.771Z,9.00
2022-11-27T10:54:46.869Z,8.90
2022-11-27T10:57:43.895Z,8.57
2022-11-27T11:00:25.533Z,9.57
2022-11-27T11:03:03.004Z,8.90
2022-11-27T11:05:41.352Z,9.30
2022-11-27T11:08:20.350Z,9.07
2022-11-27T11:10:53.454Z,9.20
2022-11-27T11:13:23.510Z,8.93
2022-11-27T11:15:55.269Z,8.47
2022-11-27T11:18:26.930Z,9.27
2022-11-27T11:20:57.662Z,8.20
2022-11-27T11:23:30.803Z,8.93
2022-11-27T11:26:04.091Z,9.20
2022-11-27T11:28:39.347Z,7.90
2022-11-27T11:31:16.710Z,8.50
2022-11-27T11:33:55.200Z,8.93
2022-11-27T11:36:22.637Z,8.70
2022-11-27T11:38:51.462Z,9.40
2022-11-27T11:41:20.085Z,9.13
2022-11-27T11:43:57.447Z,9.43
2022-11-27T11:46:28.490Z,9.00
2022-11-27T11:49:01.857Z,8.33
2022-11-27T11:51:57.388Z,8.70
2022-11-27T11:54:50.346Z,9.23
2022-11-27T11:57:41.015Z,9.50
2022-11-27T12:00:14.581Z,8.90
2022-11-27T12:03:13.763Z,9.17
2022-11-27T12:06:06.263Z,9.03
2022-11-27T12:08:53.992Z,8.73
2022-11-27T12:11:30.607Z,8.67
2022-11-27T12:14:14.166Z,8.70
2022-11-27T12:16:59.006Z,8.23
2022-11-27T12:20:01.686Z,8.63
2022-11-27T12:23:06.386Z,8.50
2022-11-27T12:25:39.228Z,8.80
2022-11-27T12:28:31.699Z,8.50
2022-11-27T12:31:11.788Z,8.30
2022-11-27T12:33:57.609Z,8.70
2022-11-27T12:36:57.677Z,8.70
2022-11-27T12:39:33.778Z,9.10
2022-11-27T12:42:21.880Z,7.83
2022-11-27T12:44:57.718Z,9.00
2022-11-27T12:47:38.895Z,7.70
2022-11-27T12:50:17.628Z,8.60
2022-11-27T12:52:57.056Z,8.73
2022-11-27T12:55:30.722Z,9.17
2022-11-27T12:58:06.049Z,7.53
2022-11-27T13:00:41.082Z,8.17
2022-11-27T13:03:18.388Z,8.40
2022-11-27T13:05:53.332Z,8.33
2022-11-27T13:08:29.125Z,8.60
2022-11-27T13:11:04.882Z,8.30
2022-11-27T13:13:37.534Z,8.40
2022-11-27T13:16:11.142Z,8.30
2022-11-27T13:18:44.746Z,8.93
2022-11-27T13:21:17.483Z,8.70
2022-11-27T13:23:44.533Z,8.20
2022-11-27T13:26:25.974Z,8.60
2022-11-27T13:28:58.127Z,8.20
2022-11-27T13:31:32.127Z,8.67
2022-11-27T13:34:05.258Z,8.53
2022-11-27T13:36:38.943Z,8.07
2022-11-27T13:39:07.156Z,8.43
2022-11-27T13:41:40.243Z,6.60
2022-11-27T13:44:24.687Z,6.87
2022-11-27T13:46:56.944Z,8.07
2022-11-27T13:49:28.797Z,7.37
2022-11-27T13:52:08.286Z,7.53
2022-11-27T13:54:35.423Z,7.67
2022-11-27T13:57:17.069Z,7.70
2022-11-27T13:59:57.712Z,8.73
2022-11-27T14:02:26.303Z,7.40
2022-11-27T14:04:56.346Z,8.43
2022-11-27T14:07:36.348Z,7.10
2022-11-27T14:10:11.757Z,7.27
2022-11-27T14:12:42.562Z,7.07
2022-11-27T14:15:23.388Z,8.50
2022-11-27T14:17:53.946Z,8.13
2022-11-27T14:20:28.621Z,8.00
2022-11-27T14:23:12.262Z,7.80
2022-11-27T14:25:40.403Z,8.00
2022-11-27T14:28:16.553Z,8.53
2022-11-27T14:30:49.170Z,7.73
2022-11-27T14:33:19.156Z,7.93
2022-11-27T14:35:49.786Z,7.80
2022-11-27T14:38:17.070Z,8.50
2022-11-27T14:40:44.737Z,7.43
2022-11-27T14:43:17.038Z,8.93
2022-11-27T14:45:47.399Z,8.73
2022-11-27T14:48:22.493Z,8.20
2022-11-27T14:50:52.389Z,7.87
2022-11-27T14:53:23.622Z,8.50
2022-11-27T14:55:56.431Z,8.77
2022-11-27T14:58:28.191Z,7.93
2022-11-27T15:01:00.767Z,10.07
2022-11-27T15:03:28.411Z,10.03
2022-11-27T15:05:58.964Z,9.73
2022-11-27T15:08:27.075Z,9.60
2022-11-27T15:10:57.485Z,8.67
2022-11-27T15:13:29.090Z,9.43
2022-11-27T15:16:03.729Z,9.27
2022-11-27T15:18:33.776Z,8.30
2022-11-27T15:21:08.470Z,9.10
2022-11-27T15:23:36.311Z,7.40
2022-11-27T15:26:16.926Z,8.67
2022-11-27T15:28:56.966Z,8.37
2022-11-27T15:31:29.250Z,7.63
2022-11-27T15:34:01.121Z,7.83
2022-11-27T15:36:38.216Z,7.50
2022-11-27T15:39:21.985Z,8.27
2022-11-27T15:41:56.025Z,8.63
2022-11-27T15:44:27.209Z,8.60
2022-11-27T15:46:57.357Z,8.07
2022-11-27T15:49:24.569Z,8.77
2022-11-27T15:51:52.625Z,8.63
2022-11-27T15:54:19.890Z,9.00
2022-11-27T15:56:47.804Z,7.70
2022-11-27T15:59:15.856Z,9.13
2022-11-27T16:01:44.336Z,7.47
2022-11-27T16:04:11.346Z,7.53
2022-11-27T16:06:38.736Z,7.37
2022-11-27T16:09:07.039Z,8.40
2022-11-27T16:11:34.103Z,8.87
2022-11-27T16:14:01.099Z,8.57
2022-11-27T16:16:28.166Z,7.17
2022-11-27T16:18:59.743Z,8.40
2022-11-27T16:21:29.935Z,8.10
2022-11-27T16:23:59.295Z,8.63
2022-11-27T16:26:27.770Z,8.57
2022-11-27T16:28:55.333Z,7.67
2022-11-27T16:31:24.768Z,8.30
2022-11-27T16:33:52.571Z,7.70
2022-11-27T16:36:23.101Z,7.93
2022-11-27T16:38:54.101Z,8.33
2022-11-27T16:41:25.925Z,8.17
2022-11-27T16:43:56.785Z,8.50
2022-11-27T16:46:26.991Z,7.40
2022-11-27T16:48:56.071Z,8.40
2022-11-27T16:51:32.175Z,7.93
2022-11-27T16:54:02.602Z,8.10
2022-11-27T16:56:32.098Z,7.53
2022-11-27T16:59:03.195Z,7.30
2022-11-27T17:01:34.583Z,7.50
2022-11-27T17:04:03.541Z,7.33
2022-11-27T17:06:35.934Z,8.00
2022-11-27T17:09:06.139Z,7.63
2022-11-27T17:11:36.082Z,8.33
2022-11-27T17:14:07.632Z,7.97
2022-11-27T17:16:35.971Z,7.73
2022-11-27T17:19:03.730Z,8.37
2022-11-27T17:21:34.752Z,8.57
2022-11-27T17:24:05.085Z,8.23
2022-11-27T17:26:38.468Z,7.33
2022-11-27T17:29:05.481Z,8.63
2022-11-27T17:31:35.363Z,8.80
2022-11-27T17:34:03.694Z,7.60
2022-11-27T17:36:37.072Z,7.63
2022-11-27T17:39:06.324Z,7.67
2022-11-27T17:41:34.153Z,8.07
2022-11-27T17:44:04.436Z,7.07
2022-11-27T17:46:32.507Z,7.30
2022-11-27T17:49:04.517Z,8.53
2022-11-27T17:51:35.513Z,8.47
2022-11-27T17:54:05.202Z,8.17
2022-11-27T17:56:33.442Z,7.90
2022-11-27T17:59:00.644Z,7.90
2022-11-27T18:01:30.083Z,7.77
2022-11-27T18:04:00.781Z,6.83
2022-11-27T18:06:27.989Z,7.47
2022-11-27T18:08:58.082Z,7.47
2022-11-27T18:11:36.282Z,7.03
2022-11-27T18:14:03.976Z,6.73
2022-11-27T18:16:34.822Z,7.10
2022-11-27T18:19:21.422Z,7.37
2022-11-27T18:21:48.556Z,7.40
2022-11-27T18:24:25.081Z,6.37
2022-11-27T18:27:10.130Z,7.10
2022-11-27T18:29:39.696Z,7.07
2022-11-27T18:32:07.472Z,5.87
2022-11-27T18:34:35.119Z,6.43
2022-11-27T18:37:02.370Z,6.33
2022-11-27T18:39:31.532Z,6.77
2022-11-27T18:41:58.527Z,6.80
2022-11-27T18:44:26.699Z,5.97
2022-11-27T18:46:53.842Z,6.40
2022-11-27T18:49:27.283Z,6.13
2022-11-27T18:51:54.791Z,6.33
2022-11-27T18:54:25.383Z,6.30
2022-11-27T18:56:54.105Z,5.70
2022-11-27T18:59:21.221Z,6.40
2022-11-27T19:01:48.409Z,5.27
2022-11-27T19:04:15.725Z,5.40
2022-11-27T19:06:43.858Z,6.07
2022-11-27T19:09:11.427Z,5.30
2022-11-27T19:11:39.699Z,5.53
2022-11-27T19:14:09.565Z,5.90
2022-11-27T19:16:41.963Z,5.27
2022-11-27T19:19:50.254Z,5.27
2022-11-27T19:22:01.656Z,5.53
2022-11-27T19:24:28.703Z,6.37
2022-11-27T19:26:57.649Z,5.60
2022-11-27T19:29:26.084Z,7.80
2022-11-27T19:31:55.051Z,6.13
2022-11-27T19:34:22.693Z,6.40
2022-11-27T19:36:49.648Z,6.17
2022-11-27T19:39:16.753Z,5.90
2022-11-27T19:41:43.860Z,6.57
2022-11-27T19:44:13.002Z,6.17
2022-11-27T19:46:41.523Z,5.60
2022-11-27T19:49:14.568Z,5.90
2022-11-27T19:51:42.924Z,6.13
2022-11-27T19:54:13.383Z,6.20
2022-11-27T19:56:42.288Z,5.17
2022-11-27T19:59:11.317Z,5.60
2022-11-27T20:01:40.166Z,5.67
2022-11-27T20:04:10.960Z,6.10
2022-11-27T20:06:38.408Z,5.90
2022-11-27T20:09:06.781Z,6.67
2022-11-27T20:11:35.502Z,5.83
2022-11-27T20:14:04.546Z,6.07
2022-11-27T20:16:32.441Z,6.30
2022-11-27T20:19:01.484Z,5.90
2022-11-27T20:21:29.767Z,6.00
2022-11-27T20:23:56.882Z,5.03
2022-11-27T20:26:26.203Z,5.20
2022-11-27T20:28:54.577Z,5.97
2022-11-27T20:31:25.085Z,5.80
2022-11-27T20:33:54.223Z,5.83
2022-11-27T20:36:23.493Z,5.60
2022-11-27T20:38:53.768Z,5.83
2022-11-27T20:41:24.566Z,5.37
2022-11-27T20:43:56.004Z,5.10
2022-11-27T20:46:23.624Z,5.73
2022-11-27T20:48:52.559Z,5.90
2022-11-27T20:51:23.980Z,5.60
2022-11-27T20:53:52.261Z,5.87
2022-11-27T20:56:20.814Z,5.37
2022-11-27T20:58:48.696Z,5.40
2022-11-27T21:01:18.318Z,6.10
2022-11-27T21:03:46.715Z,5.67
2022-11-27T21:06:14.883Z,5.70
2022-11-27T21:08:42.179Z,6.30
2022-11-27T21:11:13.236Z,5.50
2022-11-27T21:13:40.659Z,5.33
2022-11-27T21:16:09.604Z,5.80
2022-11-27T21:18:37.074Z,5.80
2022-11-27T21:21:08.942Z,5.80
2022-11-27T21:23:36.021Z,6.40
2022-11-27T21:26:03.166Z,5.53
2022-11-27T21:28:32.565Z,5.60
2022-11-27T21:31:06.614Z,5.67
2022-11-27T21:33:33.875Z,5.67
2022-11-27T21:36:00.948Z,5.70
2022-11-27T21:38:28.006Z,5.10
2022-11-27T21:40:55.200Z,5.27
2022-11-27T21:43:22.498Z,5.43
2022-11-27T21:45:51.514Z,5.57
2022-11-27T21:48:18.547Z,4.70
2022-11-27T21:50:45.533Z,5.37
2022-11-27T21:53:12.500Z,5.80
2022-11-27T21:55:40.818Z,5.40
2022-11-27T21:58:08.621Z,5.60
2022-11-27T22:00:36.847Z,5.93
2022-11-27T22:03:05.190Z,5.67
2022-11-27T22:05:32.214Z,5.53
2022-11-27T22:07:59.199Z,5.00
2022-11-27T22:10:26.294Z,5.10
2022-11-27T22:12:53.333Z,5.80
2022-11-27T22:15:20.337Z,5.20
2022-11-27T22:17:48.425Z,5.73
2022-11-27T22:20:17.218Z,5.57
2022-11-27T22:22:44.231Z,5.40
2022-11-27T22:25:11.233Z,5.57
2022-11-27T22:27:38.143Z,5.33
2022-11-27T22:30:07.928Z,5.00
2022-11-27T22:32:34.931Z,4.90
2022-11-27T22:35:02.125Z,5.30
2022-11-27T22:37:30.427Z,5.20
2022-11-27T22:39:57.351Z,5.33
2022-11-27T22:42:24.301Z,5.00
2022-11-27T22:44:51.258Z,5.27
2022-11-27T22:47:18.310Z,5.70
2022-11-27T22:49:45.263Z,5.20
2022-11-27T22:52:12.218Z,5.47
2022-11-27T22:54:40.739Z,5.40
2022-11-27T22:57:07.837Z,5.07
2022-11-27T22:59:35.198Z,5.60
2022-11-27T23:02:03.581Z,4.50
2022-11-27T23:04:30.699Z,5.57
2022-11-27T23:06:57.860Z,5.30
2022-11-27T23:09:24.855Z,5.43
2022-11-27T23:11:53.263Z,5.57
2022-11-27T23:14:20.276Z,5.03
2022-11-27T23:16:47.456Z,5.20
2022-11-27T23:19:14.779Z,4.77
2022-11-27T23:21:42.180Z,5.07
2022-11-27T23:24:16.504Z,5.27
2022-11-27T23:26:44.160Z,4.63
2022-11-27T23:29:12.697Z,5.10
2022-11-27T23:31:39.952Z,4.90
2022-11-27T23:34:13.426Z,5.40
2022-11-27T23:36:40.432Z,5.33
2022-11-27T23:39:10.955Z,5.37
2022-11-27T23:41:39.632Z,5.20
2022-11-27T23:44:06.634Z,5.57
2022-11-27T23:46:35.011Z,6.03
2022-11-27T23:49:02.039Z,5.40
2022-11-27T23:51:31.959Z,5.57
2022-11-27T23:54:00.206Z,5.40
2022-11-27T23:56:30.501Z,5.03
2022-11-27T23:58:58.856Z,5.43
